createdAt,value
2022-10-04T00:00:09.195Z,77.6
2022-10-04T00:01:07.504Z,78.6
2022-10-04T00:02:14.591Z,79.0
2022-10-04T00:03:06.336Z,78.8
2022-10-04T00:04:08.336Z,78.7
2022-10-04T00:05:07.725Z,78.2
2022-10-04T00:06:02.150Z,77.4
2022-10-04T00:07:06.537Z,78.5
2022-10-04T00:08:13.895Z,78.7
2022-10-04T00:09:07.505Z,79.7
2022-10-04T00:10:06.938Z,79.0
2022-10-04T00:11:05.239Z,78.2
2022-10-04T00:12:04.223Z,78.4
2022-10-04T00:13:05.408Z,78.3
2022-10-04T00:14:07.148Z,76.8
2022-10-04T00:15:04.787Z,77.5
2022-10-04T00:16:01.946Z,77.2
2022-10-04T00:17:10.156Z,78.4
2022-10-04T00:18:20.417Z,77.8
2022-10-04T00:19:20.406Z,76.3
2022-10-04T00:20:01.849Z,76.3
2022-10-04T00:21:03.450Z,76.8
2022-10-04T00:22:12.483Z,76.9
2022-10-04T00:23:20.428Z,74.9
2022-10-04T00:24:09.966Z,75.1
2022-10-04T00:25:15.076Z,74.8
2022-10-04T00:26:03.350Z,74.6
2022-10-04T00:27:18.108Z,75.5
2022-10-04T00:28:15.249Z,75.9
2022-10-04T00:29:20.418Z,76.2
2022-10-04T00:30:19.859Z,76.9
2022-10-04T00:31:13.619Z,78.3
2022-10-04T00:32:20.424Z,78.6
2022-10-04T00:33:03.081Z,78.8
2022-10-04T00:34:20.402Z,78.9
2022-10-04T00:35:00.946Z,80.4
2022-10-04T00:36:20.412Z,81.3
2022-10-04T00:37:01.952Z,81.6
2022-10-04T00:38:12.496Z,81.1
2022-10-04T00:39:02.528Z,80.1
2022-10-04T00:40:12.144Z,80.9
2022-10-04T00:41:05.250Z,80.1
2022-10-04T00:42:11.623Z,80.2
2022-10-04T00:43:05.686Z,79.8
2022-10-04T00:44:03.836Z,79.8
2022-10-04T00:45:06.277Z,78.2
2022-10-04T00:46:05.104Z,78.2
2022-10-04T00:47:12.633Z,78.5
2022-10-04T00:48:13.053Z,80.4
2022-10-04T00:49:06.093Z,81.1
2022-10-04T00:50:12.801Z,81.0
2022-10-04T00:51:09.467Z,81.8
2022-10-04T00:52:06.560Z,82.0
2022-10-04T00:53:11.663Z,81.8
2022-10-04T00:54:06.564Z,82.5
2022-10-04T00:55:07.381Z,82.3
2022-10-04T00:56:05.156Z,83.4
2022-10-04T00:57:06.533Z,82.7
2022-10-04T00:58:04.702Z,81.8
2022-10-04T00:59:13.235Z,82.0
2022-10-04T01:00:05.242Z,82.6
2022-10-04T01:01:03.509Z,82.8
2022-10-04T01:02:05.773Z,81.8
2022-10-04T01:03:07.718Z,80.9
2022-10-04T01:04:04.789Z,81.5
2022-10-04T01:05:05.228Z,82.2
2022-10-04T01:06:04.497Z,82.4
2022-10-04T01:07:04.090Z,81.5
2022-10-04T01:08:07.810Z,81.3
2022-10-04T01:09:09.227Z,81.4
2022-10-04T01:10:07.892Z,81.4
2022-10-04T01:11:05.542Z,81.1
2022-10-04T01:12:06.927Z,81.4
2022-10-04T01:13:09.163Z,81.5
2022-10-04T01:14:08.062Z,81.1
2022-10-04T01:15:05.403Z,80.2
2022-10-04T01:16:09.014Z,79.2
2022-10-04T01:17:02.645Z,79.2
2022-10-04T01:18:09.460Z,80.0
2022-10-04T01:19:20.416Z,80.0
2022-10-04T01:20:01.971Z,80.8
2022-10-04T01:21:06.244Z,81.1
2022-10-04T01:22:11.129Z,80.4
2022-10-04T01:23:02.935Z,79.0
2022-10-04T01:24:15.972Z,80.0
2022-10-04T01:25:01.838Z,81.5
2022-10-04T01:26:04.414Z,81.4
2022-10-04T01:27:02.401Z,81.8
2022-10-04T01:28:01.071Z,82.1
2022-10-04T01:29:07.548Z,81.9
2022-10-04T01:30:04.133Z,81.8
2022-10-04T01:31:01.031Z,82.3
2022-10-04T01:32:01.273Z,82.4
2022-10-04T01:33:01.066Z,81.8
2022-10-04T01:34:03.080Z,81.6
2022-10-04T01:35:01.592Z,81.4
2022-10-04T01:36:01.288Z,81.2
2022-10-04T01:37:01.208Z,81.7
2022-10-04T01:38:03.274Z,80.7
2022-10-04T01:39:01.606Z,81.2
2022-10-04T01:40:01.920Z,81.5
2022-10-04T01:41:03.304Z,81.9
2022-10-04T01:42:08.588Z,82.3
2022-10-04T01:43:05.627Z,83.2
2022-10-04T01:44:05.542Z,82.1
2022-10-04T01:45:06.848Z,82.5
2022-10-04T01:46:06.734Z,82.9
2022-10-04T01:47:05.003Z,83.4
2022-10-04T01:48:05.187Z,83.2
2022-10-04T01:49:04.792Z,82.8
2022-10-04T01:50:07.473Z,82.8
2022-10-04T01:51:07.470Z,81.5
2022-10-04T01:52:06.456Z,81.7
2022-10-04T01:53:10.983Z,81.3
2022-10-04T01:54:07.058Z,79.8
2022-10-04T01:55:06.088Z,80.2
2022-10-04T01:56:06.730Z,80.6
2022-10-04T01:57:10.268Z,80.8
2022-10-04T01:58:08.410Z,80.1
2022-10-04T01:59:05.435Z,81.2
2022-10-04T02:00:04.207Z,82.1
2022-10-04T02:01:08.388Z,82.3
2022-10-04T02:02:06.752Z,82.2
2022-10-04T02:03:07.613Z,81.7
2022-10-04T02:04:09.452Z,81.0
2022-10-04T02:05:06.095Z,80.7
2022-10-04T02:06:06.616Z,82.3
2022-10-04T02:07:03.505Z,80.9
2022-10-04T02:08:04.981Z,81.3
2022-10-04T02:09:08.395Z,79.7
2022-10-04T02:10:04.705Z,80.1
2022-10-04T02:11:03.821Z,80.6
2022-10-04T02:12:02.159Z,81.7
2022-10-04T02:13:04.678Z,80.9
2022-10-04T02:14:01.277Z,80.8
2022-10-04T02:15:03.962Z,80.5
2022-10-04T02:16:02.065Z,81.4
2022-10-04T02:17:06.051Z,81.3
2022-10-04T02:18:01.601Z,81.8
2022-10-04T02:19:02.358Z,81.8
2022-10-04T02:20:02.880Z,80.2
2022-10-04T02:21:04.736Z,81.7
2022-10-04T02:22:03.037Z,82.3
2022-10-04T02:23:01.345Z,81.4
2022-10-04T02:24:01.629Z,81.5
2022-10-04T02:25:02.049Z,81.4
2022-10-04T02:26:03.940Z,82.5
2022-10-04T02:27:01.364Z,83.3
2022-10-04T02:28:01.437Z,83.0
2022-10-04T02:29:01.289Z,81.9
2022-10-04T02:30:04.944Z,81.8
2022-10-04T02:31:03.350Z,82.2
2022-10-04T02:32:03.592Z,81.9
2022-10-04T02:33:01.441Z,82.7
2022-10-04T02:34:01.515Z,81.7
2022-10-04T02:35:03.091Z,81.2
2022-10-04T02:36:01.726Z,82.1
2022-10-04T02:37:02.625Z,82.9
2022-10-04T02:38:07.854Z,83.7
2022-10-04T02:39:07.608Z,82.8
2022-10-04T02:40:08.604Z,81.9
2022-10-04T02:41:07.843Z,81.3
2022-10-04T02:42:05.180Z,82.1
2022-10-04T02:43:07.923Z,81.7
2022-10-04T02:44:09.899Z,80.7
2022-10-04T02:45:08.677Z,82.0
2022-10-04T02:46:09.252Z,82.0
2022-10-04T02:47:08.686Z,82.0
2022-10-04T02:48:10.124Z,82.3
2022-10-04T02:49:05.787Z,82.8
2022-10-04T02:50:08.146Z,83.3
2022-10-04T02:51:14.583Z,83.7
2022-10-04T02:52:07.769Z,82.2
2022-10-04T02:53:13.659Z,82.7
2022-10-04T02:54:06.707Z,82.6
2022-10-04T02:55:05.693Z,83.4
2022-10-04T02:56:02.198Z,82.5
2022-10-04T02:57:02.086Z,82.1
2022-10-04T02:58:01.583Z,82.8
2022-10-04T02:59:03.616Z,81.9
2022-10-04T03:00:12.924Z,81.4
2022-10-04T03:01:01.130Z,82.0
2022-10-04T03:02:02.280Z,82.8
2022-10-04T03:03:14.865Z,82.6
2022-10-04T03:04:01.711Z,82.5
2022-10-04T03:05:07.566Z,82.3
2022-10-04T03:06:04.709Z,82.4
2022-10-04T03:07:04.487Z,82.5
2022-10-04T03:08:03.368Z,82.2
2022-10-04T03:09:04.881Z,82.7
2022-10-04T03:10:05.999Z,82.2
2022-10-04T03:11:03.559Z,81.7
2022-10-04T03:12:03.353Z,81.2
2022-10-04T03:13:02.003Z,81.0
2022-10-04T03:14:03.803Z,82.2
2022-10-04T03:15:01.079Z,82.5
2022-10-04T03:16:01.118Z,82.4
2022-10-04T03:17:02.778Z,82.0
2022-10-04T03:18:01.420Z,82.2
2022-10-04T03:19:01.575Z,81.9
2022-10-04T03:20:02.325Z,82.5
2022-10-04T03:21:04.359Z,82.6
2022-10-04T03:22:06.052Z,83.2
2022-10-04T03:23:01.299Z,83.0
2022-10-04T03:24:02.811Z,82.5
2022-10-04T03:25:01.555Z,82.3
2022-10-04T03:26:07.331Z,81.0
2022-10-04T03:27:05.175Z,81.3
2022-10-04T03:28:02.301Z,81.0
2022-10-04T03:29:04.826Z,81.8
2022-10-04T03:30:01.928Z,81.0
2022-10-04T03:31:01.199Z,80.4
2022-10-04T03:32:03.481Z,79.9
2022-10-04T03:33:02.262Z,81.5
2022-10-04T03:34:01.387Z,82.4
2022-10-04T03:35:04.197Z,81.8
2022-10-04T03:36:02.132Z,79.9
2022-10-04T03:37:02.448Z,80.3
2022-10-04T03:38:06.667Z,81.6
2022-10-04T03:39:10.016Z,81.4
2022-10-04T03:40:03.059Z,82.5
2022-10-04T03:41:02.251Z,83.0
2022-10-04T03:42:06.841Z,83.5
2022-10-04T03:43:04.406Z,83.4
2022-10-04T03:44:04.845Z,83.5
2022-10-04T03:45:05.849Z,84.2
2022-10-04T03:46:02.788Z,83.5
2022-10-04T03:47:06.512Z,84.2
2022-10-04T03:48:05.901Z,84.4
2022-10-04T03:49:01.585Z,85.2
2022-10-04T03:50:05.897Z,85.6
2022-10-04T03:51:04.445Z,85.6
2022-10-04T03:52:03.286Z,85.3
2022-10-04T03:53:08.463Z,84.5
2022-10-04T03:54:02.624Z,84.4
2022-10-04T03:55:04.977Z,85.2
2022-10-04T03:56:08.936Z,84.1
2022-10-04T03:57:02.251Z,84.9
2022-10-04T03:58:02.264Z,85.4
2022-10-04T03:59:03.365Z,84.4
2022-10-04T04:00:05.142Z,84.2
2022-10-04T04:01:13.681Z,84.2
2022-10-04T04:02:06.369Z,84.0
2022-10-04T04:03:06.474Z,84.0
2022-10-04T04:04:11.193Z,83.6
2022-10-04T04:05:10.554Z,84.0
2022-10-04T04:06:10.821Z,84.3
2022-10-04T04:07:04.706Z,83.9
2022-10-04T04:08:06.636Z,83.7
2022-10-04T04:09:04.822Z,84.1
2022-10-04T04:10:04.896Z,84.2
2022-10-04T04:11:03.696Z,83.9
2022-10-04T04:12:05.688Z,84.4
2022-10-04T04:13:08.951Z,85.1
2022-10-04T04:14:06.718Z,85.3
2022-10-04T04:15:02.607Z,85.7
2022-10-04T04:16:02.295Z,85.5
2022-10-04T04:17:17.859Z,85.2
2022-10-04T04:18:04.326Z,85.8
2022-10-04T04:19:04.568Z,85.3
2022-10-04T04:20:07.634Z,85.1
2022-10-04T04:21:02.982Z,85.2
2022-10-04T04:22:00.985Z,84.7
2022-10-04T04:23:10.610Z,85.1
2022-10-04T04:24:05.677Z,84.7
2022-10-04T04:25:03.870Z,84.1
2022-10-04T04:26:17.261Z,83.9
2022-10-04T04:27:03.418Z,84.7
2022-10-04T04:28:06.971Z,84.6
2022-10-04T04:29:07.041Z,85.0
2022-10-04T04:30:03.930Z,85.6
2022-10-04T04:31:05.442Z,86.1
2022-10-04T04:32:06.063Z,85.9
2022-10-04T04:33:12.483Z,86.5
2022-10-04T04:34:02.787Z,86.7
2022-10-04T04:35:03.902Z,86.4
2022-10-04T04:36:05.866Z,86.2
2022-10-04T04:37:03.335Z,86.1
2022-10-04T04:38:04.226Z,85.6
2022-10-04T04:39:14.403Z,85.8
2022-10-04T04:40:17.639Z,84.7
2022-10-04T04:41:08.376Z,86.1
2022-10-04T04:42:04.304Z,85.9
2022-10-04T04:43:02.739Z,86.3
2022-10-04T04:44:01.074Z,86.5
2022-10-04T04:45:05.385Z,87.1
2022-10-04T04:46:25.963Z,86.8
2022-10-04T04:47:06.253Z,86.7
2022-10-04T04:48:01.865Z,87.0
2022-10-04T04:49:03.432Z,87.2
2022-10-04T04:50:05.919Z,86.5
2022-10-04T04:51:01.012Z,86.5
2022-10-04T04:52:01.200Z,86.5
2022-10-04T04:53:08.306Z,86.6
2022-10-04T04:54:05.652Z,85.6
2022-10-04T04:55:02.515Z,86.0
2022-10-04T04:56:05.209Z,86.8
2022-10-04T04:57:01.011Z,86.7
2022-10-04T04:58:03.918Z,85.6
2022-10-04T04:59:05.646Z,85.1
2022-10-04T05:00:01.876Z,84.9
2022-10-04T05:01:05.401Z,84.7
2022-10-04T05:02:01.290Z,84.8
2022-10-04T05:03:04.003Z,84.8
2022-10-04T05:04:03.637Z,85.0
2022-10-04T05:05:19.534Z,85.1
2022-10-04T05:06:02.719Z,84.7
2022-10-04T05:07:04.339Z,85.0
2022-10-04T05:08:13.081Z,84.8
2022-10-04T05:09:01.359Z,84.4
2022-10-04T05:10:00.961Z,85.1
2022-10-04T05:11:04.535Z,85.4
2022-10-04T05:12:06.044Z,84.6
2022-10-04T05:13:03.031Z,85.0
2022-10-04T05:14:05.563Z,84.1
2022-10-04T05:15:01.058Z,84.1
2022-10-04T05:16:01.453Z,84.8
2022-10-04T05:17:01.189Z,84.9
2022-10-04T05:18:02.281Z,84.6
2022-10-04T05:19:05.405Z,83.6
2022-10-04T05:20:02.659Z,84.3
2022-10-04T05:21:07.569Z,83.2
2022-10-04T05:22:07.826Z,84.6
2022-10-04T05:23:01.055Z,84.5
2022-10-04T05:24:11.027Z,85.0
2022-10-04T05:25:05.821Z,84.3
2022-10-04T05:26:02.411Z,84.1
2022-10-04T05:27:04.537Z,84.8
2022-10-04T05:28:01.807Z,84.4
2022-10-04T05:29:09.928Z,85.4
2022-10-04T05:30:06.128Z,85.8
2022-10-04T05:31:18.511Z,85.2
2022-10-04T05:32:10.681Z,85.1
2022-10-04T05:33:04.504Z,85.6
2022-10-04T05:34:06.104Z,85.4
2022-10-04T05:35:01.411Z,85.4
2022-10-04T05:36:20.430Z,85.6
2022-10-04T05:37:19.059Z,84.9
2022-10-04T05:38:07.064Z,85.1
2022-10-04T05:39:09.128Z,84.7
2022-10-04T05:40:13.013Z,85.3
2022-10-04T05:41:07.250Z,85.2
2022-10-04T05:42:10.227Z,84.4
2022-10-04T05:43:01.086Z,84.6
2022-10-04T05:44:01.257Z,85.6
2022-10-04T05:45:01.035Z,86.2
2022-10-04T05:46:14.754Z,86.1
2022-10-04T05:47:06.368Z,86.5
2022-10-04T05:48:06.310Z,86.4
2022-10-04T05:49:07.690Z,86.7
2022-10-04T05:50:02.871Z,86.3
2022-10-04T05:51:01.433Z,86.8
2022-10-04T05:52:05.857Z,86.3
2022-10-04T05:53:20.251Z,86.5
2022-10-04T05:54:02.273Z,86.2
2022-10-04T05:55:20.417Z,85.6
2022-10-04T05:56:17.947Z,85.5
2022-10-04T05:57:19.775Z,85.7
2022-10-04T05:58:15.072Z,85.9
2022-10-04T05:59:11.451Z,86.2
2022-10-04T06:00:11.093Z,85.9
2022-10-04T06:01:14.977Z,86.1
2022-10-04T06:02:12.874Z,86.3
2022-10-04T06:03:19.277Z,87.7
2022-10-04T06:04:16.123Z,87.5
2022-10-04T06:05:08.927Z,87.8
2022-10-04T06:06:11.128Z,87.6
2022-10-04T06:07:11.438Z,87.8
2022-10-04T06:08:12.289Z,88.0
2022-10-04T06:09:09.337Z,88.2
2022-10-04T06:10:20.427Z,88.8
2022-10-04T06:11:08.654Z,88.0
2022-10-04T06:12:09.435Z,88.2
2022-10-04T06:13:09.482Z,87.9
2022-10-04T06:14:20.037Z,88.0
2022-10-04T06:15:19.126Z,88.0
2022-10-04T06:16:14.464Z,87.4
2022-10-04T06:17:18.037Z,86.9
2022-10-04T06:18:16.884Z,87.5
2022-10-04T06:19:14.282Z,87.6
2022-10-04T06:20:12.222Z,88.0
2022-10-04T06:21:15.897Z,88.4
2022-10-04T06:22:14.101Z,88.6
2022-10-04T06:23:05.850Z,88.7
2022-10-04T06:24:07.790Z,88.4
2022-10-04T06:25:06.355Z,87.7
2022-10-04T06:26:05.036Z,87.0
2022-10-04T06:27:10.355Z,87.4
2022-10-04T06:28:15.462Z,87.5
2022-10-04T06:29:05.585Z,87.9
2022-10-04T06:30:04.887Z,87.8
2022-10-04T06:31:19.749Z,86.8
2022-10-04T06:32:20.053Z,86.7
2022-10-04T06:33:13.092Z,87.2
2022-10-04T06:34:19.648Z,86.5
2022-10-04T06:35:20.419Z,87.1
2022-10-04T06:36:19.390Z,87.4
2022-10-04T06:37:17.830Z,88.1
2022-10-04T06:38:20.429Z,87.5
2022-10-04T06:39:12.013Z,87.9
2022-10-04T06:40:20.399Z,87.9
2022-10-04T06:41:20.300Z,88.1
2022-10-04T06:42:20.422Z,87.3
2022-10-04T06:43:16.670Z,86.8
2022-10-04T06:44:20.435Z,86.7
2022-10-04T06:45:19.079Z,85.9
2022-10-04T06:46:10.911Z,86.1
2022-10-04T06:47:14.474Z,87.5
2022-10-04T06:48:15.482Z,88.3
2022-10-04T06:49:13.073Z,89.8
2022-10-04T06:50:17.285Z,90.4
2022-10-04T06:51:12.867Z,90.0
2022-10-04T06:52:18.107Z,89.7
2022-10-04T06:53:18.214Z,89.9
2022-10-04T06:54:12.016Z,90.1
2022-10-04T06:55:19.318Z,89.8
2022-10-04T06:56:20.413Z,88.9
2022-10-04T06:57:17.087Z,89.7
2022-10-04T06:58:20.400Z,89.1
2022-10-04T06:59:14.251Z,90.1
2022-10-04T07:00:12.500Z,90.2
2022-10-04T07:01:08.270Z,91.4
2022-10-04T07:02:07.097Z,91.6
2022-10-04T07:03:08.803Z,91.4
2022-10-04T07:04:14.692Z,90.7
2022-10-04T07:05:10.870Z,88.8
2022-10-04T07:06:02.962Z,87.9
2022-10-04T07:07:14.289Z,87.7
2022-10-04T07:08:10.170Z,87.7
2022-10-04T07:09:04.592Z,87.3
2022-10-04T07:10:15.708Z,87.6
2022-10-04T07:11:10.314Z,88.1
2022-10-04T07:12:05.865Z,88.9
2022-10-04T07:13:15.247Z,89.0
2022-10-04T07:14:10.351Z,89.7
2022-10-04T07:15:07.718Z,89.0
2022-10-04T07:16:06.149Z,88.6
2022-10-04T07:17:04.381Z,88.7
2022-10-04T07:18:08.755Z,89.1
2022-10-04T07:19:09.900Z,89.7
2022-10-04T07:20:02.414Z,91.0
2022-10-04T07:21:07.432Z,91.3
2022-10-04T07:22:12.004Z,90.1
2022-10-04T07:23:07.623Z,90.5
2022-10-04T07:24:01.802Z,90.3
2022-10-04T07:25:12.332Z,90.0
2022-10-04T07:26:05.996Z,90.9
2022-10-04T07:27:03.745Z,91.4
2022-10-04T07:28:10.251Z,91.3
2022-10-04T07:29:11.368Z,90.9
2022-10-04T07:30:04.990Z,91.3
2022-10-04T07:31:04.799Z,91.9
2022-10-04T07:32:10.843Z,91.7
2022-10-04T07:33:01.103Z,91.7
2022-10-04T07:34:08.011Z,91.2
2022-10-04T07:35:04.900Z,90.7
2022-10-04T07:36:07.519Z,89.8
2022-10-04T07:37:08.190Z,89.8
2022-10-04T07:38:13.759Z,90.9
2022-10-04T07:39:12.087Z,91.1
2022-10-04T07:40:06.618Z,90.6
2022-10-04T07:41:07.635Z,90.8
2022-10-04T07:42:13.395Z,90.7
2022-10-04T07:43:06.899Z,90.9
2022-10-04T07:44:05.721Z,91.1
2022-10-04T07:45:11.809Z,91.3
2022-10-04T07:46:05.505Z,91.9
2022-10-04T07:47:08.487Z,92.2
2022-10-04T07:48:09.378Z,92.5
2022-10-04T07:49:00.978Z,91.7
2022-10-04T07:50:18.504Z,91.5
2022-10-04T07:51:13.486Z,90.5
2022-10-04T07:52:19.246Z,91.7
2022-10-04T07:53:09.640Z,92.0
2022-10-04T07:54:12.086Z,92.1
2022-10-04T07:55:15.815Z,91.4
2022-10-04T07:56:09.692Z,91.6
2022-10-04T07:57:11.418Z,91.1
2022-10-04T07:58:14.849Z,91.5
2022-10-04T07:59:20.431Z,91.4
2022-10-04T08:00:10.322Z,92.3
2022-10-04T08:01:06.832Z,92.8
2022-10-04T08:02:17.437Z,92.7
2022-10-04T08:03:20.175Z,92.7
2022-10-04T08:04:13.691Z,92.1
2022-10-04T08:05:15.104Z,91.8
2022-10-04T08:06:11.033Z,92.2
2022-10-04T08:07:06.544Z,91.9
2022-10-04T08:08:19.637Z,91.5
2022-10-04T08:09:20.426Z,91.3
2022-10-04T08:10:10.716Z,90.7
2022-10-04T08:11:14.286Z,92.0
2022-10-04T08:12:11.625Z,91.9
2022-10-04T08:13:11.895Z,93.0
2022-10-04T08:14:18.606Z,93.5
2022-10-04T08:15:20.404Z,93.3
2022-10-04T08:16:11.335Z,94.2
2022-10-04T08:17:15.661Z,94.2
2022-10-04T08:18:10.540Z,94.1
2022-10-04T08:19:18.265Z,94.4
2022-10-04T08:20:20.504Z,95.1
2022-10-04T08:21:05.559Z,94.6
2022-10-04T08:22:07.114Z,94.5
2022-10-04T08:23:13.655Z,94.2
2022-10-04T08:24:15.050Z,94.6
2022-10-04T08:25:11.663Z,95.1
2022-10-04T08:26:14.251Z,95.2
2022-10-04T08:27:19.903Z,95.0
2022-10-04T08:28:12.447Z,95.7
2022-10-04T08:29:15.238Z,96.0
2022-10-04T08:30:08.177Z,95.6
2022-10-04T08:31:12.263Z,95.0
2022-10-04T08:32:11.264Z,95.0
2022-10-04T08:33:11.936Z,95.4
2022-10-04T08:34:17.680Z,93.5
2022-10-04T08:35:18.216Z,93.9
2022-10-04T08:36:10.272Z,94.5
2022-10-04T08:37:16.226Z,94.2
2022-10-04T08:38:12.274Z,94.1
2022-10-04T08:39:00.932Z,94.5
2022-10-04T08:40:20.429Z,94.3
2022-10-04T08:41:20.403Z,94.3
2022-10-04T08:42:20.417Z,94.8
2022-10-04T08:43:20.415Z,94.5
2022-10-04T08:44:20.417Z,95.0
2022-10-04T08:45:20.427Z,95.2
2022-10-04T08:46:20.533Z,94.8
2022-10-04T08:47:22.096Z,94.4
2022-10-04T08:48:20.413Z,95.0
2022-10-04T08:49:20.401Z,95.0
2022-10-04T08:50:20.413Z,95.5
2022-10-04T08:51:20.412Z,96.2
2022-10-04T08:52:20.429Z,95.6
2022-10-04T08:53:20.407Z,95.9
2022-10-04T08:54:20.422Z,96.2
2022-10-04T08:55:20.424Z,96.4
2022-10-04T08:56:12.883Z,96.6
2022-10-04T08:57:18.503Z,95.7
2022-10-04T08:58:12.740Z,96.5
2022-10-04T08:59:20.405Z,95.6
2022-10-04T09:00:12.479Z,95.0
2022-10-04T09:01:20.432Z,94.3
2022-10-04T09:02:20.412Z,95.5
2022-10-04T09:03:24.688Z,96.1
2022-10-04T09:04:20.406Z,96.5
2022-10-04T09:05:18.181Z,96.0
2022-10-04T09:06:20.412Z,96.4
2022-10-04T09:07:18.179Z,96.0
2022-10-04T09:08:20.410Z,97.0
2022-10-04T09:09:20.471Z,97.8
2022-10-04T09:10:24.775Z,97.4
2022-10-04T09:11:20.407Z,97.4
2022-10-04T09:12:13.385Z,97.2
2022-10-04T09:13:20.425Z,97.2
2022-10-04T09:14:20.402Z,96.9
2022-10-04T09:15:18.172Z,97.3
2022-10-04T09:16:14.166Z,97.1
2022-10-04T09:17:22.231Z,96.7
2022-10-04T09:18:17.331Z,97.4
2022-10-04T09:19:18.915Z,97.2
2022-10-04T09:20:36.637Z,97.4
2022-10-04T09:21:09.493Z,96.8
2022-10-04T09:22:20.403Z,96.7
2022-10-04T09:23:13.944Z,97.4
2022-10-04T09:24:19.617Z,97.1
2022-10-04T09:25:20.443Z,97.1
2022-10-04T09:26:12.669Z,97.4
2022-10-04T09:27:31.463Z,97.0
2022-10-04T09:28:17.233Z,96.8
2022-10-04T09:29:20.434Z,97.0
2022-10-04T09:30:14.358Z,97.0
2022-10-04T09:31:18.034Z,97.2
2022-10-04T09:32:20.409Z,97.9
2022-10-04T09:33:15.834Z,97.8
2022-10-04T09:34:20.443Z,97.2
2022-10-04T09:35:19.532Z,96.6
2022-10-04T09:36:11.883Z,96.4
2022-10-04T09:37:20.447Z,96.6
2022-10-04T09:38:20.420Z,96.7
2022-10-04T09:39:30.049Z,97.3
2022-10-04T09:40:20.404Z,96.8
2022-10-04T09:41:19.659Z,97.0
2022-10-04T09:42:20.399Z,96.5
2022-10-04T09:43:20.457Z,97.0
2022-10-04T09:44:20.545Z,97.8
2022-10-04T09:45:20.451Z,97.9
2022-10-04T09:46:15.063Z,97.5
2022-10-04T09:47:12.335Z,97.3
2022-10-04T09:48:20.412Z,97.9
2022-10-04T09:49:16.310Z,97.7
2022-10-04T09:50:18.072Z,97.7
2022-10-04T09:51:18.609Z,97.7
2022-10-04T09:52:18.290Z,97.1
2022-10-04T09:53:15.652Z,96.0
2022-10-04T09:54:17.154Z,95.1
2022-10-04T09:55:14.708Z,93.6
2022-10-04T09:56:20.416Z,94.0
2022-10-04T09:57:17.748Z,94.6
2022-10-04T09:58:20.148Z,96.1
2022-10-04T09:59:20.451Z,96.3
2022-10-04T10:00:13.167Z,96.8
2022-10-04T10:01:11.273Z,96.4
2022-10-04T10:02:20.462Z,96.8
2022-10-04T10:03:20.506Z,97.6
2022-10-04T10:04:20.406Z,97.8
2022-10-04T10:05:20.422Z,97.3
2022-10-04T10:06:20.423Z,97.3
2022-10-04T10:07:19.192Z,98.0
2022-10-04T10:08:14.812Z,98.1
2022-10-04T10:09:10.310Z,98.0
2022-10-04T10:10:15.931Z,98.1
2022-10-04T10:11:12.366Z,96.9
2022-10-04T10:12:20.360Z,96.8
2022-10-04T10:13:13.900Z,97.8
2022-10-04T10:14:20.410Z,98.4
2022-10-04T10:15:14.866Z,98.5
2022-10-04T10:16:10.946Z,99.1
2022-10-04T10:17:12.614Z,99.2
2022-10-04T10:18:12.860Z,99.0
2022-10-04T10:19:22.173Z,99.1
2022-10-04T10:20:20.401Z,98.5
2022-10-04T10:21:20.191Z,98.7
2022-10-04T10:22:20.442Z,98.3
2022-10-04T10:23:20.413Z,99.4
2022-10-04T10:24:13.816Z,99.0
2022-10-04T10:25:16.606Z,99.0
2022-10-04T10:26:20.401Z,98.8
2022-10-04T10:27:18.461Z,98.4
2022-10-04T10:28:20.455Z,98.1
2022-10-04T10:29:17.806Z,97.3
2022-10-04T10:30:20.413Z,97.6
2022-10-04T10:31:20.509Z,97.1
2022-10-04T10:32:19.123Z,97.8
2022-10-04T10:33:19.084Z,98.4
2022-10-04T10:34:20.349Z,98.7
2022-10-04T10:35:19.200Z,98.2
2022-10-04T10:36:20.418Z,97.9
2022-10-04T10:37:08.751Z,98.1
2022-10-04T10:38:20.438Z,98.6
2022-10-04T10:39:18.942Z,98.8
2022-10-04T10:40:20.439Z,99.4
2022-10-04T10:41:20.408Z,99.1
2022-10-04T10:42:17.085Z,98.2
2022-10-04T10:43:18.880Z,97.1
2022-10-04T10:44:17.177Z,96.6
2022-10-04T10:45:18.029Z,97.1
2022-10-04T10:46:10.293Z,97.3
2022-10-04T10:47:15.133Z,96.4
2022-10-04T10:48:11.954Z,97.2
2022-10-04T10:49:22.252Z,97.1
2022-10-04T10:50:16.523Z,97.3
2022-10-04T10:51:09.997Z,97.7
2022-10-04T10:52:20.412Z,98.0
2022-10-04T10:53:18.970Z,98.6
2022-10-04T10:54:20.404Z,98.5
2022-10-04T10:55:20.405Z,98.5
2022-10-04T10:56:20.430Z,98.2
2022-10-04T10:57:12.235Z,98.5
2022-10-04T10:58:20.429Z,99.0
2022-10-04T10:59:20.402Z,97.9
2022-10-04T11:00:19.566Z,98.8
2022-10-04T11:01:20.128Z,99.1
2022-10-04T11:02:28.501Z,99.0
2022-10-04T11:03:23.988Z,99.1
2022-10-04T11:04:20.414Z,98.9
2022-10-04T11:05:20.413Z,99.1
2022-10-04T11:06:14.503Z,99.2
2022-10-04T11:07:17.927Z,99.2
2022-10-04T11:08:15.674Z,98.9
2022-10-04T11:09:20.407Z,99.2
2022-10-04T11:10:20.432Z,98.6
2022-10-04T11:11:20.403Z,98.8
2022-10-04T11:12:20.410Z,99.2
2022-10-04T11:13:18.258Z,99.5
2022-10-04T11:14:20.400Z,99.6
2022-10-04T11:15:20.406Z,100.0
2022-10-04T11:16:20.502Z,99.9
2022-10-04T11:17:17.711Z,99.0
2022-10-04T11:18:12.306Z,98.5
2022-10-04T11:19:20.418Z,97.8
2022-10-04T11:20:20.415Z,98.3
2022-10-04T11:21:20.417Z,98.9
2022-10-04T11:22:20.436Z,99.4
2022-10-04T11:23:20.413Z,99.2
2022-10-04T11:24:20.365Z,99.5
2022-10-04T11:25:20.413Z,98.7
2022-10-04T11:26:20.413Z,97.5
2022-10-04T11:27:12.406Z,97.1
2022-10-04T11:28:10.827Z,97.2
2022-10-04T11:29:17.422Z,97.6
2022-10-04T11:30:14.255Z,97.4
2022-10-04T11:31:20.548Z,97.5
2022-10-04T11:32:20.420Z,98.0
2022-10-04T11:33:20.441Z,97.4
2022-10-04T11:34:20.425Z,96.6
2022-10-04T11:35:20.440Z,96.7
2022-10-04T11:36:19.955Z,96.6
2022-10-04T11:37:14.161Z,97.3
2022-10-04T11:38:09.684Z,98.4
2022-10-04T11:39:13.964Z,97.9
2022-10-04T11:40:14.245Z,98.7
2022-10-04T11:41:13.243Z,98.3
2022-10-04T11:42:14.837Z,98.0
2022-10-04T11:43:20.407Z,97.5
2022-10-04T11:44:20.429Z,97.3
2022-10-04T11:45:20.427Z,96.2
2022-10-04T11:46:12.483Z,96.7
2022-10-04T11:47:13.637Z,97.3
2022-10-04T11:48:14.295Z,97.8
2022-10-04T11:49:17.859Z,97.4
2022-10-04T11:50:20.464Z,96.2
2022-10-04T11:51:20.411Z,96.7
2022-10-04T11:52:20.000Z,97.2
2022-10-04T11:53:20.421Z,97.9
2022-10-04T11:54:20.407Z,98.5
2022-10-04T11:55:20.308Z,98.7
2022-10-04T11:56:09.848Z,98.4
2022-10-04T11:57:18.876Z,98.5
2022-10-04T11:58:13.062Z,97.8
2022-10-04T11:59:17.673Z,98.0
2022-10-04T12:00:10.052Z,97.4
2022-10-04T12:01:20.428Z,97.1
2022-10-04T12:02:20.408Z,97.1
2022-10-04T12:03:20.479Z,97.2
2022-10-04T12:04:19.899Z,96.9
2022-10-04T12:05:20.413Z,97.0
2022-10-04T12:06:18.613Z,96.3
2022-10-04T12:07:19.435Z,96.3
2022-10-04T12:08:17.754Z,96.6
2022-10-04T12:09:15.046Z,96.7
2022-10-04T12:10:14.306Z,96.6
2022-10-04T12:11:20.400Z,96.5
2022-10-04T12:12:20.439Z,98.0
2022-10-04T12:13:20.432Z,97.5
2022-10-04T12:14:14.493Z,97.4
2022-10-04T12:15:20.418Z,97.0
2022-10-04T12:16:16.997Z,96.5
2022-10-04T12:17:20.421Z,97.0
2022-10-04T12:18:20.017Z,96.8
2022-10-04T12:19:20.420Z,97.2
2022-10-04T12:20:20.405Z,96.7
2022-10-04T12:21:17.397Z,95.3
2022-10-04T12:22:18.422Z,95.1
2022-10-04T12:23:20.465Z,94.9
2022-10-04T12:24:13.817Z,95.7
2022-10-04T12:25:19.644Z,95.7
2022-10-04T12:26:19.606Z,95.4
2022-10-04T12:27:20.414Z,96.3
2022-10-04T12:28:19.420Z,95.4
2022-10-04T12:29:19.966Z,95.9
2022-10-04T12:30:18.799Z,95.7
2022-10-04T12:31:10.705Z,96.2
2022-10-04T12:32:09.703Z,96.2
2022-10-04T12:33:13.802Z,95.4
2022-10-04T12:34:15.731Z,96.2
2022-10-04T12:35:16.595Z,95.0
2022-10-04T12:36:13.607Z,95.5
2022-10-04T12:37:15.702Z,95.7
2022-10-04T12:38:18.870Z,95.6
2022-10-04T12:39:17.238Z,96.4
2022-10-04T12:40:15.879Z,96.0
2022-10-04T12:41:15.727Z,95.6
2022-10-04T12:42:18.176Z,95.6
2022-10-04T12:43:06.656Z,95.2
2022-10-04T12:44:19.765Z,95.3
2022-10-04T12:45:20.406Z,95.4
2022-10-04T12:46:20.495Z,96.2
2022-10-04T12:47:20.477Z,96.3
2022-10-04T12:48:14.198Z,95.7
2022-10-04T12:49:19.157Z,96.1
2022-10-04T12:50:12.024Z,96.1
2022-10-04T12:51:10.909Z,96.2
2022-10-04T12:52:10.395Z,94.1
2022-10-04T12:53:10.904Z,94.2
2022-10-04T12:54:17.210Z,93.5
2022-10-04T12:55:13.985Z,95.3
2022-10-04T12:56:10.662Z,92.7
2022-10-04T12:57:13.637Z,93.2
2022-10-04T12:58:11.107Z,93.1
2022-10-04T12:59:14.594Z,93.0
2022-10-04T13:00:13.734Z,92.7
2022-10-04T13:01:16.422Z,93.0
2022-10-04T13:02:16.242Z,92.3
2022-10-04T13:03:14.524Z,92.6
2022-10-04T13:04:17.699Z,91.8
2022-10-04T13:05:09.626Z,93.0
2022-10-04T13:06:14.191Z,93.5
2022-10-04T13:07:19.139Z,92.9
2022-10-04T13:08:13.593Z,92.7
2022-10-04T13:09:12.329Z,91.8
2022-10-04T13:10:24.700Z,92.4
2022-10-04T13:11:16.041Z,91.1
2022-10-04T13:12:10.435Z,92.2
2022-10-04T13:13:20.439Z,92.1
2022-10-04T13:14:20.404Z,92.1
2022-10-04T13:15:14.998Z,92.4
2022-10-04T13:17:27.849Z,93.2
2022-10-04T13:18:14.718Z,90.9
2022-10-04T13:19:14.763Z,91.6